Time;durP1;ratioP1;P1;durP2;ratioP2;P2;SDS_P1;SDS_P2;PMS_P1;PMS_P2;Temp;Humidity;BMP_temperature;BMP_pressure;BME280_temperature;BME280_humidity;BME280_pressure;Samples;Min_cycle;Max_cycle;Signal;HPM_P1;HPM_P2
2022/12/31 00:01:55;;;;;;;11.45;4.53;;;;;;;;;;21162096;28;20086;-60
2022/12/31 00:11:57;;;;;;;9.20;4.05;;;;;;;;;;21162073;28;20051;-60
2022/12/31 00:21:59;;;;;;;6.78;3.38;;;;;;;;;;21161296;28;20100;-60
2022/12/31 00:32:00;;;;;;;7.40;4.07;;;;;;;;;;21160073;28;20047;-60
2022/12/31 00:42:02;;;;;;;9.43;4.22;;;;;;;;;;21170447;28;20055;-61
2022/12/31 00:52:04;;;;;;;9.23;4.30;;;;;;;;;;21173409;28;20048;-60
2022/12/31 01:02:06;;;;;;;8.95;4.30;;;;;;;;;;21175246;28;20062;-60
2022/12/31 01:12:07;;;;;;;7.72;4.35;;;;;;;;;;21174449;28;20043;-59
2022/12/31 01:22:09;;;;;;;13.25;4.85;;;;;;;;;;21174775;28;20044;-60
2022/12/31 01:32:10;;;;;;;8.57;4.53;;;;;;;;;;21173769;28;20441;-61
2022/12/31 01:42:12;;;;;;;11.23;4.53;;;;;;;;;;21172748;28;20056;-59
2022/12/31 01:52:35;;;;;;;12.02;5.18;;;;;;;;;;21170740;28;20055;-60
2022/12/31 02:02:37;;;;;;;11.02;4.30;;;;;;;;;;21172545;28;20063;-60
2022/12/31 02:12:39;;;;;;;10.82;4.65;;;;;;;;;;21171626;28;20056;-59
2022/12/31 02:22:53;;;;;;;11.07;4.57;;;;;;;;;;21170000;28;20364;-59
2022/12/31 02:33:08;;;;;;;8.98;5.15;;;;;;;;;;21168434;28;20478;-59
2022/12/31 02:43:11;;;;;;;13.03;5.83;;;;;;;;;;21167436;28;20058;-59
2022/12/31 02:53:24;;;;;;;11.57;4.97;;;;;;;;;;21166883;28;20050;-60
2022/12/31 03:03:27;;;;;;;9.05;4.63;;;;;;;;;;21166107;28;20062;-60
2022/12/31 03:13:32;;;;;;;8.77;4.25;;;;;;;;;;21164776;28;20055;-60
2022/12/31 03:23:40;;;;;;;7.47;4.00;;;;;;;;;;21164743;28;20044;-61
2022/12/31 03:33:44;;;;;;;7.97;4.95;;;;;;;;;;21164211;28;20388;-59
2022/12/31 03:43:46;;;;;;;9.65;4.10;;;;;;;;;;21164095;28;20070;-60
2022/12/31 03:53:50;;;;;;;7.85;4.45;;;;;;;;;;21163879;28;20052;-61
2022/12/31 04:03:53;;;;;;;6.72;3.88;;;;;;;;;;21200505;28;20062;-58
2022/12/31 04:13:55;;;;;;;10.10;4.65;;;;;;;;;;21172806;28;20083;-59
2022/12/31 04:24:00;;;;;;;8.65;4.68;;;;;;;;;;21180243;28;20053;-60
2022/12/31 04:34:22;;;;;;;8.73;4.53;;;;;;;;;;21179731;28;20120;-60
2022/12/31 04:44:40;;;;;;;9.63;4.65;;;;;;;;;;21178481;28;20044;-59
2022/12/31 04:54:44;;;;;;;7.53;4.55;;;;;;;;;;21177006;28;20059;-59
2022/12/31 05:04:46;;;;;;;9.48;4.53;;;;;;;;;;21175669;28;20059;-59
2022/12/31 05:14:49;;;;;;;12.10;4.97;;;;;;;;;;21174693;28;20058;-59
2022/12/31 05:24:51;;;;;;;8.05;4.93;;;;;;;;;;21173850;28;20079;-60
2022/12/31 05:34:53;;;;;;;7.65;4.28;;;;;;;;;;21173640;28;20074;-61
2022/12/31 05:44:56;;;;;;;8.70;4.65;;;;;;;;;;21173863;28;20488;-60
2022/12/31 05:54:57;;;;;;;9.43;5.00;;;;;;;;;;21172993;28;20399;-62
2022/12/31 06:05:00;;;;;;;9.10;5.15;;;;;;;;;;21171650;28;20425;-62
2022/12/31 06:15:02;;;;;;;7.75;4.40;;;;;;;;;;21171660;28;20051;-62
2022/12/31 06:25:05;;;;;;;14.43;5.57;;;;;;;;;;21170601;28;20109;-61
2022/12/31 06:35:07;;;;;;;9.27;5.43;;;;;;;;;;21168125;28;20048;-61
2022/12/31 06:45:09;;;;;;;9.23;4.82;;;;;;;;;;21166165;28;20047;-60
2022/12/31 06:55:12;;;;;;;8.73;4.68;;;;;;;;;;21166218;28;20130;-59
2022/12/31 07:05:37;;;;;;;10.05;4.90;;;;;;;;;;21165924;28;20065;-60
2022/12/31 07:15:42;;;;;;;12.07;5.30;;;;;;;;;;20823367;28;20053;-60
2022/12/31 07:25:51;;;;;;;9.57;5.43;;;;;;;;;;20823007;28;20107;-60
2022/12/31 07:35:53;;;;;;;14.27;5.50;;;;;;;;;;20821563;28;20543;-60
2022/12/31 07:46:13;;;;;;;8.95;5.18;;;;;;;;;;20891896;28;20089;-60
2022/12/31 07:56:15;;;;;;;11.80;5.50;;;;;;;;;;21162997;28;20052;-60
2022/12/31 08:06:23;;;;;;;11.90;5.95;;;;;;;;;;21112556;28;20060;-60
2022/12/31 08:16:24;;;;;;;13.52;6.80;;;;;;;;;;21078018;28;20052;-60
2022/12/31 08:26:45;;;;;;;11.00;6.22;;;;;;;;;;21077710;28;20048;-59
2022/12/31 08:36:49;;;;;;;10.30;6.07;;;;;;;;;;21078607;28;20419;-60
2022/12/31 08:47:10;;;;;;;9.10;5.77;;;;;;;;;;21076380;28;20048;-59
2022/12/31 08:57:21;;;;;;;10.48;6.53;;;;;;;;;;21077280;28;20403;-60
2022/12/31 09:07:32;;;;;;;16.90;7.32;;;;;;;;;;21149773;28;20503;-59
2022/12/31 09:17:42;;;;;;;14.25;7.57;;;;;;;;;;21175446;28;20062;-59
2022/12/31 09:27:55;;;;;;;13.88;7.55;;;;;;;;;;21174142;28;20101;-61
2022/12/31 09:37:59;;;;;;;10.30;6.80;;;;;;;;;;21173437;28;20415;-61
2022/12/31 09:48:01;;;;;;;14.38;7.45;;;;;;;;;;21171433;28;20522;-60
2022/12/31 09:58:23;;;;;;;15.02;8.57;;;;;;;;;;21171694;28;20384;-59
2022/12/31 10:08:25;;;;;;;15.95;8.40;;;;;;;;;;21169292;28;20492;-58
2022/12/31 10:18:45;;;;;;;15.27;8.38;;;;;;;;;;21168765;28;20079;-58
2022/12/31 10:28:50;;;;;;;17.80;8.45;;;;;;;;;;21169308;28;20103;-58
2022/12/31 10:39:01;;;;;;;13.37;6.73;;;;;;;;;;21168318;28;20055;-59
2022/12/31 10:49:11;;;;;;;9.75;6.00;;;10.60;66.30;;;;;;21166554;28;20055;-59
2022/12/31 10:59:30;;;;;;;12.68;6.57;;;10.60;66.30;;;;;;21166785;28;20047;-58
2022/12/31 11:09:53;;;;;;;9.63;5.95;;;10.80;65.50;;;;;;21165440;28;20055;-57
2022/12/31 11:20:30;;;;;;;8.90;5.70;;;11.10;64.30;;;;;;21211114;27;20051;-58
2022/12/31 11:30:45;;;;;;;7.13;4.22;;;11.40;63.20;;;;;;21249589;27;20104;-58
2022/12/31 11:41:06;;;;;;;29.30;6.30;;;12.40;68.40;;;;;;21247621;27;20099;-55
2022/12/31 11:51:22;;;;;;;13.13;6.18;;;13.30;62.30;;;;;;21248445;27;20502;-56
2022/12/31 12:01:32;;;;;;;9.90;4.90;;;13.20;59.00;;;;;;21248648;28;20073;-55
2022/12/31 12:11:37;;;;;;;11.85;5.15;;;13.30;57.60;;;;;;21247001;28;20043;-65
2022/12/31 12:21:45;;;;;;;8.73;5.50;;;13.50;58.60;;;;;;21245978;28;20047;-56
2022/12/31 12:32:13;;;;;;;16.15;5.75;;;13.20;56.30;;;;;;21245948;27;20094;-63
2022/12/31 12:42:15;;;;;;;11.32;6.60;;;13.60;57.70;;;;;;21263720;27;20043;-60
2022/12/31 12:52:29;;;;;;;12.27;6.63;;;13.80;56.10;;;;;;21261452;27;20058;-60
2022/12/31 13:02:41;;;;;;;14.23;7.22;;;13.20;56.80;;;;;;21261175;27;20051;-58
2022/12/31 13:12:51;;;;;;;20.20;6.35;;;13.10;58.00;;;;;;21242828;27;20050;-66
2022/12/31 13:23:30;;;;;;;12.05;5.47;;;13.20;56.90;;;;;;21260932;27;20054;-59
2022/12/31 13:33:39;;;;;;;16.60;5.20;;;13.20;56.20;;;;;;20831999;28;20053;-56
2022/12/31 13:43:41;;;;;;;14.95;5.57;;;13.40;55.50;;;;;;20831430;28;20065;-56
2022/12/31 13:54:00;;;;;;;14.18;5.60;;;13.40;54.00;;;;;;20830274;28;20477;-56
2022/12/31 14:04:14;;;;;;;17.80;5.72;;;13.40;54.20;;;;;;20931090;28;20419;-55
2022/12/31 14:14:31;;;;;;;14.57;5.63;;;13.50;52.10;;;;;;21170740;28;20059;-55
2022/12/31 14:24:42;;;;;;;15.10;5.00;;;13.50;51.70;;;;;;21170084;28;20219;-56
2022/12/31 14:35:06;;;;;;;14.23;4.53;;;13.50;51.60;;;;;;21168779;28;20091;-54
2022/12/31 14:45:38;;;;;;;12.60;4.30;;;13.50;50.00;;;;;;21167293;28;20059;-59
2022/12/31 14:55:40;;;;;;;15.57;5.95;;;13.60;49.80;;;;;;21169057;28;20484;-55
2022/12/31 15:06:00;;;;;;;10.02;4.45;;;13.50;49.90;;;;;;21194984;27;20051;-57
2022/12/31 15:16:04;;;;;;;13.07;4.07;;;13.50;49.30;;;;;;21264384;27;20051;-55
2022/12/31 15:26:20;;;;;;;11.55;4.03;;;13.60;47.30;;;;;;21254200;27;20050;-55
2022/12/31 15:36:25;;;;;;;12.35;3.70;;;13.60;47.80;;;;;;21250784;27;20062;-67
2022/12/31 15:46:32;;;;;;;15.77;4.60;;;13.50;48.20;;;;;;21250557;27;20055;-55
2022/12/31 15:56:39;;;;;;;9.82;4.53;;;13.50;47.50;;;;;;21250207;27;20130;-55
2022/12/31 16:06:41;;;;;;;9.27;4.05;;;13.50;48.30;;;;;;21248812;27;20083;-68
2022/12/31 16:16:51;;;;;;;22.08;7.68;;;;;;;;;;21266641;27;20058;-54
2022/12/31 16:26:56;;;;;;;38.55;15.07;;;13.40;49.60;;;;;;21266225;27;20054;-57
2022/12/31 16:36:58;;;;;;;25.63;7.80;;;13.30;50.50;;;;;;21264854;27;20066;-58
2022/12/31 16:47:02;;;;;;;20.92;7.57;;;13.30;49.70;;;;;;21264756;27;20053;-55
2022/12/31 16:57:05;;;;;;;18.55;5.70;;;13.20;49.50;;;;;;21264136;27;20043;-55
2022/12/31 17:07:23;;;;;;;24.67;8.10;;;13.00;49.90;;;;;;21257555;27;20051;-57
2022/12/31 17:17:28;;;;;;;21.27;8.98;;;12.90;50.20;;;;;;21256463;28;20126;-57
2022/12/31 17:27:31;;;;;;;19.38;5.35;;;12.80;50.50;;;;;;21255210;28;20126;-56
2022/12/31 17:37:33;;;;;;;15.55;6.35;;;12.70;50.30;;;;;;21253227;28;20089;-55
2022/12/31 17:47:38;;;;;;;15.45;7.18;;;12.70;50.50;;;;;;21253026;28;20094;-59
2022/12/31 17:57:40;;;;;;;;;;;;;;;;;;21252172;28;20051;-62
2022/12/31 18:07:42;;;;;;;20.33;7.75;;;12.40;53.20;;;;;;21211802;27;1197738;-61
2022/12/31 18:17:44;;;;;;;33.05;9.07;;;;;;;;;;21254553;27;20047;-55
2022/12/31 18:27:46;;;;;;;23.65;7.75;;;;;;;;;;21255002;27;20039;-58
2022/12/31 18:37:48;;;;;;;21.70;6.70;;;;;;;;;;21253652;27;20047;-59
2022/12/31 18:47:51;;;;;;;29.88;17.83;;;;;;;;;;21234196;27;20043;-64
2022/12/31 18:57:52;;;;;;;24.48;11.50;;;;;;;;;;21252417;27;20046;-55
2022/12/31 19:07:54;;;;;;;27.35;10.52;;;;;;;;;;21250383;27;20063;-55
2022/12/31 19:17:56;;;;;;;18.90;6.80;;;;;;;;;;21251226;27;20073;-56
2022/12/31 19:27:59;;;;;;;15.00;5.90;;;;;;;;;;21251060;27;20047;-67
2022/12/31 19:38:01;;;;;;;15.52;6.78;;;;;;;;;;21250274;27;20054;-55
2022/12/31 19:48:03;;;;;;;42.13;21.73;;;;;;;;;;21249154;27;20130;-55
2022/12/31 19:58:05;;;;;;;51.65;23.52;;;;;;;;;;21250693;27;20079;-56
2022/12/31 20:08:07;;;;;;;19.85;8.15;;;;;;;;;;21248225;28;20062;-55
2022/12/31 20:18:09;;;;;;;17.00;6.90;;;;;;;;;;21247210;28;20062;-55
2022/12/31 20:28:11;;;;;;;16.45;8.18;;;;;;;;;;21229277;28;20395;-68
2022/12/31 20:38:14;;;;;;;17.90;7.63;;;;;;;;;;21248525;28;20474;-56
2022/12/31 20:48:16;;;;;;;17.15;8.18;;;;;;;;;;21247670;28;20451;-56
2022/12/31 20:58:18;;;;;;;19.33;9.48;;;;;;;;;;21255998;27;20078;-55
2022/12/31 21:08:20;;;;;;;14.95;7.57;;;;;;;;;;21263900;27;20533;-55
2022/12/31 21:18:22;;;;;;;17.58;7.65;;;;;;;;;;21260360;27;20138;-54
2022/12/31 21:28:24;;;;;;;23.40;12.70;;;;;;;;;;21258920;27;20143;-55
2022/12/31 21:38:26;;;;;;;25.38;12.60;;;;;;;;;;21258283;27;20076;-54
2022/12/31 21:48:29;;;;;;;26.55;12.98;;;;;;;;;;21256475;27;20108;-55
2022/12/31 21:58:31;;;;;;;21.25;10.90;;;;;;;;;;21257455;27;20055;-55
2022/12/31 22:08:33;;;;;;;20.90;10.15;;;;;;;;;;21254622;27;20483;-55
2022/12/31 22:18:37;;;;;;;24.10;11.57;;;;;;;;;;21255423;27;20051;-56
2022/12/31 22:28:40;;;;;;;26.90;12.35;;;;;;;;;;21254780;27;20047;-59
2022/12/31 22:38:43;;;;;;;59.47;32.47;;;9.60;67.00;;;;;;21254595;27;20085;-55
2022/12/31 22:48:46;;;;;;;22.73;9.32;;;9.60;67.20;;;;;;21253198;27;20058;-55
2022/12/31 22:58:48;;;;;;;23.52;9.88;;;9.30;67.40;;;;;;21253861;27;20129;-56
2022/12/31 23:29:36;;;;;;;60.17;33.35;;;;;;;;;;21250774;27;20043;-55
2022/12/31 23:39:39;;;;;;;49.50;25.20;;;8.50;68.70;;;;;;21248971;27;20088;-55
2022/12/31 23:49:42;;;;;;;57.08;32.28;;;;;;;;;;21248387;27;20412;-60
2022/12/31 23:59:44;;;;;;;33.15;22.30;;;8.60;69.20;;;;;;21249436;27;20047;-59
